sensor_id;sensor_type;location;lat;lon;timestamp;pressure;altitude;pressure_sealevel;temperature
17142;BMP180;32805;53.556;9.944;2023-05-18T00:00:44;102624.00;;;8.30
17142;BMP180;32805;53.556;9.944;2023-05-18T00:03:12;102616.00;;;8.30
17142;BMP180;32805;53.556;9.944;2023-05-18T00:05:40;102620.00;;;8.40
17142;BMP180;32805;53.556;9.944;2023-05-18T00:08:08;102621.00;;;8.40
17142;BMP180;32805;53.556;9.944;2023-05-18T00:10:37;102614.00;;;8.40
17142;BMP180;32805;53.556;9.944;2023-05-18T00:13:05;102606.00;;;8.40
17142;BMP180;32805;53.556;9.944;2023-05-18T00:15:34;102616.00;;;8.40
17142;BMP180;32805;53.556;9.944;2023-05-18T00:18:02;102621.00;;;8.40
17142;BMP180;32805;53.556;9.944;2023-05-18T00:20:29;102621.00;;;8.40
17142;BMP180;32805;53.556;9.944;2023-05-18T00:22:57;102623.00;;;8.40
17142;BMP180;32805;53.556;9.944;2023-05-18T00:25:26;102622.00;;;8.30
17142;BMP180;32805;53.556;9.944;2023-05-18T00:27:55;102630.00;;;8.30
17142;BMP180;32805;53.556;9.944;2023-05-18T00:30:23;102632.00;;;8.40
17142;BMP180;32805;53.556;9.944;2023-05-18T00:32:51;102615.00;;;8.30
17142;BMP180;32805;53.556;9.944;2023-05-18T00:35:19;102625.00;;;8.40
17142;BMP180;32805;53.556;9.944;2023-05-18T00:37:47;102622.00;;;8.40
17142;BMP180;32805;53.556;9.944;2023-05-18T00:40:15;102624.00;;;8.40
17142;BMP180;32805;53.556;9.944;2023-05-18T00:42:42;102611.00;;;8.40
17142;BMP180;32805;53.556;9.944;2023-05-18T00:45:11;102618.00;;;8.50
17142;BMP180;32805;53.556;9.944;2023-05-18T00:47:39;102629.00;;;8.40
17142;BMP180;32805;53.556;9.944;2023-05-18T00:50:08;102624.00;;;8.40
17142;BMP180;32805;53.556;9.944;2023-05-18T00:52:36;102633.00;;;8.40
17142;BMP180;32805;53.556;9.944;2023-05-18T00:55:05;102625.00;;;8.40
17142;BMP180;32805;53.556;9.944;2023-05-18T00:57:33;102639.00;;;8.40
17142;BMP180;32805;53.556;9.944;2023-05-18T01:00:02;102629.00;;;8.40
17142;BMP180;32805;53.556;9.944;2023-05-18T01:02:34;102635.00;;;8.40
17142;BMP180;32805;53.556;9.944;2023-05-18T01:05:02;102635.00;;;8.40
17142;BMP180;32805;53.556;9.944;2023-05-18T01:07:30;102648.00;;;8.50
17142;BMP180;32805;53.556;9.944;2023-05-18T01:09:58;102625.00;;;8.50
17142;BMP180;32805;53.556;9.944;2023-05-18T01:12:31;102641.00;;;8.50
17142;BMP180;32805;53.556;9.944;2023-05-18T01:15:06;102635.00;;;8.50
17142;BMP180;32805;53.556;9.944;2023-05-18T01:17:45;102641.00;;;8.50
17142;BMP180;32805;53.556;9.944;2023-05-18T01:20:21;102642.00;;;8.50
17142;BMP180;32805;53.556;9.944;2023-05-18T01:23:05;102639.00;;;8.50
17142;BMP180;32805;53.556;9.944;2023-05-18T01:25:45;102634.00;;;8.40
17142;BMP180;32805;53.556;9.944;2023-05-18T01:28:17;102650.00;;;8.30
17142;BMP180;32805;53.556;9.944;2023-05-18T01:30:46;102647.00;;;8.30
17142;BMP180;32805;53.556;9.944;2023-05-18T01:33:14;102644.00;;;8.30
17142;BMP180;32805;53.556;9.944;2023-05-18T01:35:42;102649.00;;;8.30
17142;BMP180;32805;53.556;9.944;2023-05-18T01:38:15;102635.00;;;8.30
17142;BMP180;32805;53.556;9.944;2023-05-18T01:40:49;102648.00;;;8.30
17142;BMP180;32805;53.556;9.944;2023-05-18T01:43:22;102633.00;;;8.30
17142;BMP180;32805;53.556;9.944;2023-05-18T01:45:54;102651.00;;;8.30
17142;BMP180;32805;53.556;9.944;2023-05-18T01:48:24;102651.00;;;8.20
17142;BMP180;32805;53.556;9.944;2023-05-18T01:50:55;102649.00;;;8.20
17142;BMP180;32805;53.556;9.944;2023-05-18T01:53:27;102635.00;;;8.20
17142;BMP180;32805;53.556;9.944;2023-05-18T01:56:02;102651.00;;;8.10
17142;BMP180;32805;53.556;9.944;2023-05-18T01:58:36;102651.00;;;8.20
17142;BMP180;32805;53.556;9.944;2023-05-18T02:01:04;102645.00;;;8.20
17142;BMP180;32805;53.556;9.944;2023-05-18T02:03:32;102655.00;;;8.20
17142;BMP180;32805;53.556;9.944;2023-05-18T02:06:00;102645.00;;;8.30
17142;BMP180;32805;53.556;9.944;2023-05-18T02:08:28;102648.00;;;8.30
17142;BMP180;32805;53.556;9.944;2023-05-18T02:10:56;102657.00;;;8.30
17142;BMP180;32805;53.556;9.944;2023-05-18T02:13:23;102655.00;;;8.30
17142;BMP180;32805;53.556;9.944;2023-05-18T02:15:53;102629.00;;;8.30
17142;BMP180;32805;53.556;9.944;2023-05-18T02:18:21;102645.00;;;8.30
17142;BMP180;32805;53.556;9.944;2023-05-18T02:20:49;102651.00;;;8.20
17142;BMP180;32805;53.556;9.944;2023-05-18T02:23:17;102628.00;;;8.20
17142;BMP180;32805;53.556;9.944;2023-05-18T02:25:44;102649.00;;;8.20
17142;BMP180;32805;53.556;9.944;2023-05-18T02:28:13;102635.00;;;8.20
17142;BMP180;32805;53.556;9.944;2023-05-18T02:30:42;102646.00;;;8.20
17142;BMP180;32805;53.556;9.944;2023-05-18T02:33:11;102650.00;;;8.20
17142;BMP180;32805;53.556;9.944;2023-05-18T02:35:39;102644.00;;;8.20
17142;BMP180;32805;53.556;9.944;2023-05-18T02:38:07;102655.00;;;8.20
17142;BMP180;32805;53.556;9.944;2023-05-18T02:40:35;102649.00;;;8.20
17142;BMP180;32805;53.556;9.944;2023-05-18T02:43:03;102655.00;;;8.20
17142;BMP180;32805;53.556;9.944;2023-05-18T02:45:30;102647.00;;;8.20
17142;BMP180;32805;53.556;9.944;2023-05-18T02:47:58;102656.00;;;8.20
17142;BMP180;32805;53.556;9.944;2023-05-18T02:50:28;102632.00;;;8.30
17142;BMP180;32805;53.556;9.944;2023-05-18T02:52:56;102660.00;;;8.30
17142;BMP180;32805;53.556;9.944;2023-05-18T02:55:24;102649.00;;;8.30
17142;BMP180;32805;53.556;9.944;2023-05-18T02:58:04;102663.00;;;8.30
17142;BMP180;32805;53.556;9.944;2023-05-18T03:00:55;102652.00;;;8.40
17142;BMP180;32805;53.556;9.944;2023-05-18T03:03:30;102653.00;;;8.40
17142;BMP180;32805;53.556;9.944;2023-05-18T03:06:00;102655.00;;;8.40
17142;BMP180;32805;53.556;9.944;2023-05-18T03:08:28;102646.00;;;8.40
17142;BMP180;32805;53.556;9.944;2023-05-18T03:10:57;102654.00;;;8.40
17142;BMP180;32805;53.556;9.944;2023-05-18T03:13:25;102657.00;;;8.30
17142;BMP180;32805;53.556;9.944;2023-05-18T03:15:52;102651.00;;;8.30
17142;BMP180;32805;53.556;9.944;2023-05-18T03:18:22;102640.00;;;8.30
17142;BMP180;32805;53.556;9.944;2023-05-18T03:20:50;102671.00;;;8.30
17142;BMP180;32805;53.556;9.944;2023-05-18T03:23:20;102664.00;;;8.30
17142;BMP180;32805;53.556;9.944;2023-05-18T03:25:48;102668.00;;;8.30
17142;BMP180;32805;53.556;9.944;2023-05-18T03:28:21;102665.00;;;8.30
17142;BMP180;32805;53.556;9.944;2023-05-18T03:30:48;102664.00;;;8.30
17142;BMP180;32805;53.556;9.944;2023-05-18T03:33:16;102673.00;;;8.30
17142;BMP180;32805;53.556;9.944;2023-05-18T03:35:44;102665.00;;;8.40
17142;BMP180;32805;53.556;9.944;2023-05-18T03:38:14;102673.00;;;8.40
17142;BMP180;32805;53.556;9.944;2023-05-18T03:40:48;102665.00;;;8.40
17142;BMP180;32805;53.556;9.944;2023-05-18T03:43:16;102664.00;;;8.50
17142;BMP180;32805;53.556;9.944;2023-05-18T03:45:45;102680.00;;;8.50
17142;BMP180;32805;53.556;9.944;2023-05-18T03:48:13;102678.00;;;8.40
17142;BMP180;32805;53.556;9.944;2023-05-18T03:50:41;102674.00;;;8.50
17142;BMP180;32805;53.556;9.944;2023-05-18T03:53:09;102668.00;;;8.50
17142;BMP180;32805;53.556;9.944;2023-05-18T03:55:38;102680.00;;;8.60
17142;BMP180;32805;53.556;9.944;2023-05-18T03:58:09;102676.00;;;8.60
17142;BMP180;32805;53.556;9.944;2023-05-18T04:00:36;102676.00;;;8.60
17142;BMP180;32805;53.556;9.944;2023-05-18T04:03:05;102660.00;;;8.60
17142;BMP180;32805;53.556;9.944;2023-05-18T04:05:34;102672.00;;;8.60
17142;BMP180;32805;53.556;9.944;2023-05-18T04:08:02;102678.00;;;8.60
17142;BMP180;32805;53.556;9.944;2023-05-18T04:10:30;102678.00;;;8.70
17142;BMP180;32805;53.556;9.944;2023-05-18T04:12:57;102690.00;;;8.70
17142;BMP180;32805;53.556;9.944;2023-05-18T04:15:26;102668.00;;;8.70
17142;BMP180;32805;53.556;9.944;2023-05-18T04:17:55;102683.00;;;8.70
17142;BMP180;32805;53.556;9.944;2023-05-18T04:20:23;102683.00;;;8.70
17142;BMP180;32805;53.556;9.944;2023-05-18T04:22:55;102685.00;;;8.70
17142;BMP180;32805;53.556;9.944;2023-05-18T04:25:23;102692.00;;;8.80
17142;BMP180;32805;53.556;9.944;2023-05-18T04:27:54;102695.00;;;8.90
17142;BMP180;32805;53.556;9.944;2023-05-18T04:30:27;102698.00;;;8.90
17142;BMP180;32805;53.556;9.944;2023-05-18T04:32:55;102706.00;;;8.80
17142;BMP180;32805;53.556;9.944;2023-05-18T04:35:26;102704.00;;;8.70
17142;BMP180;32805;53.556;9.944;2023-05-18T04:37:54;102703.00;;;8.80
17142;BMP180;32805;53.556;9.944;2023-05-18T04:40:21;102715.00;;;8.80
17142;BMP180;32805;53.556;9.944;2023-05-18T04:42:50;102712.00;;;8.80
17142;BMP180;32805;53.556;9.944;2023-05-18T04:45:24;102719.00;;;8.70
17142;BMP180;32805;53.556;9.944;2023-05-18T04:47:55;102720.00;;;8.80
17142;BMP180;32805;53.556;9.944;2023-05-18T04:50:24;102715.00;;;8.80
17142;BMP180;32805;53.556;9.944;2023-05-18T04:52:52;102707.00;;;8.90
17142;BMP180;32805;53.556;9.944;2023-05-18T04:55:24;102710.00;;;9.00
17142;BMP180;32805;53.556;9.944;2023-05-18T04:57:56;102706.00;;;9.00
17142;BMP180;32805;53.556;9.944;2023-05-18T05:00:27;102731.00;;;9.00
17142;BMP180;32805;53.556;9.944;2023-05-18T05:02:57;102715.00;;;8.90
17142;BMP180;32805;53.556;9.944;2023-05-18T05:05:25;102727.00;;;9.00
17142;BMP180;32805;53.556;9.944;2023-05-18T05:07:54;102717.00;;;9.00
17142;BMP180;32805;53.556;9.944;2023-05-18T05:10:23;102731.00;;;8.90
17142;BMP180;32805;53.556;9.944;2023-05-18T05:12:50;102739.00;;;8.90
17142;BMP180;32805;53.556;9.944;2023-05-18T05:15:19;102730.00;;;9.00
17142;BMP180;32805;53.556;9.944;2023-05-18T05:17:49;102730.00;;;9.10
17142;BMP180;32805;53.556;9.944;2023-05-18T05:20:18;102735.00;;;9.20
17142;BMP180;32805;53.556;9.944;2023-05-18T05:22:46;102732.00;;;9.20
17142;BMP180;32805;53.556;9.944;2023-05-18T05:25:19;102737.00;;;9.10
17142;BMP180;32805;53.556;9.944;2023-05-18T05:27:48;102741.00;;;9.20
17142;BMP180;32805;53.556;9.944;2023-05-18T05:30:18;102733.00;;;9.30
17142;BMP180;32805;53.556;9.944;2023-05-18T05:32:46;102730.00;;;9.40
17142;BMP180;32805;53.556;9.944;2023-05-18T05:35:14;102742.00;;;9.50
17142;BMP180;32805;53.556;9.944;2023-05-18T05:37:43;102746.00;;;9.60
17142;BMP180;32805;53.556;9.944;2023-05-18T05:40:11;102750.00;;;9.70
17142;BMP180;32805;53.556;9.944;2023-05-18T05:42:44;102745.00;;;9.70
17142;BMP180;32805;53.556;9.944;2023-05-18T05:45:12;102761.00;;;9.60
17142;BMP180;32805;53.556;9.944;2023-05-18T05:47:46;102758.00;;;9.50
17142;BMP180;32805;53.556;9.944;2023-05-18T05:50:16;102757.00;;;9.40
17142;BMP180;32805;53.556;9.944;2023-05-18T05:52:47;102750.00;;;9.40
17142;BMP180;32805;53.556;9.944;2023-05-18T05:55:16;102760.00;;;9.40
17142;BMP180;32805;53.556;9.944;2023-05-18T05:57:43;102759.00;;;9.40
17142;BMP180;32805;53.556;9.944;2023-05-18T06:00:12;102755.00;;;9.50
17142;BMP180;32805;53.556;9.944;2023-05-18T06:02:46;102751.00;;;9.60
17142;BMP180;32805;53.556;9.944;2023-05-18T06:05:20;102759.00;;;9.70
17142;BMP180;32805;53.556;9.944;2023-05-18T06:07:49;102759.00;;;9.80
17142;BMP180;32805;53.556;9.944;2023-05-18T06:10:17;102758.00;;;9.90
17142;BMP180;32805;53.556;9.944;2023-05-18T06:12:45;102758.00;;;9.90
17142;BMP180;32805;53.556;9.944;2023-05-18T06:15:13;102772.00;;;9.90
17142;BMP180;32805;53.556;9.944;2023-05-18T06:17:41;102772.00;;;10.00
17142;BMP180;32805;53.556;9.944;2023-05-18T06:20:11;102774.00;;;10.10
17142;BMP180;32805;53.556;9.944;2023-05-18T06:22:39;102779.00;;;10.20
17142;BMP180;32805;53.556;9.944;2023-05-18T06:25:17;102772.00;;;10.20
17142;BMP180;32805;53.556;9.944;2023-05-18T06:28:05;102771.00;;;10.20
17142;BMP180;32805;53.556;9.944;2023-05-18T06:30:46;102776.00;;;10.10
17142;BMP180;32805;53.556;9.944;2023-05-18T06:33:19;102776.00;;;10.10
17142;BMP180;32805;53.556;9.944;2023-05-18T06:35:49;102778.00;;;10.20
17142;BMP180;32805;53.556;9.944;2023-05-18T06:38:16;102778.00;;;10.30
17142;BMP180;32805;53.556;9.944;2023-05-18T06:40:45;102774.00;;;10.50
17142;BMP180;32805;53.556;9.944;2023-05-18T06:43:13;102787.00;;;10.70
17142;BMP180;32805;53.556;9.944;2023-05-18T06:45:54;102790.00;;;10.80
17142;BMP180;32805;53.556;9.944;2023-05-18T06:48:35;102775.00;;;10.70
17142;BMP180;32805;53.556;9.944;2023-05-18T06:51:04;102776.00;;;10.70
17142;BMP180;32805;53.556;9.944;2023-05-18T06:53:31;102777.00;;;10.70
17142;BMP180;32805;53.556;9.944;2023-05-18T06:56:00;102781.00;;;10.80
17142;BMP180;32805;53.556;9.944;2023-05-18T06:58:30;102785.00;;;10.80
17142;BMP180;32805;53.556;9.944;2023-05-18T07:01:02;102786.00;;;10.70
17142;BMP180;32805;53.556;9.944;2023-05-18T07:03:30;102778.00;;;10.60
17142;BMP180;32805;53.556;9.944;2023-05-18T07:05:58;102776.00;;;10.50
17142;BMP180;32805;53.556;9.944;2023-05-18T07:08:26;102770.00;;;10.50
17142;BMP180;32805;53.556;9.944;2023-05-18T07:10:55;102782.00;;;10.60
17142;BMP180;32805;53.556;9.944;2023-05-18T07:13:25;102772.00;;;10.60
17142;BMP180;32805;53.556;9.944;2023-05-18T07:15:52;102784.00;;;10.50
17142;BMP180;32805;53.556;9.944;2023-05-18T07:18:20;102782.00;;;10.60
17142;BMP180;32805;53.556;9.944;2023-05-18T07:20:48;102788.00;;;10.50
17142;BMP180;32805;53.556;9.944;2023-05-18T07:23:15;102789.00;;;10.50
17142;BMP180;32805;53.556;9.944;2023-05-18T07:25:43;102776.00;;;10.60
17142;BMP180;32805;53.556;9.944;2023-05-18T07:28:11;102787.00;;;10.70
17142;BMP180;32805;53.556;9.944;2023-05-18T07:30:40;102780.00;;;10.80
17142;BMP180;32805;53.556;9.944;2023-05-18T07:33:07;102778.00;;;11.00
17142;BMP180;32805;53.556;9.944;2023-05-18T07:35:35;102783.00;;;11.20
17142;BMP180;32805;53.556;9.944;2023-05-18T07:38:03;102787.00;;;11.40
17142;BMP180;32805;53.556;9.944;2023-05-18T07:40:30;102783.00;;;11.70
17142;BMP180;32805;53.556;9.944;2023-05-18T07:42:58;102773.00;;;11.80
17142;BMP180;32805;53.556;9.944;2023-05-18T07:45:26;102784.00;;;12.00
17142;BMP180;32805;53.556;9.944;2023-05-18T07:47:56;102786.00;;;11.80
17142;BMP180;32805;53.556;9.944;2023-05-18T07:50:24;102785.00;;;11.90
17142;BMP180;32805;53.556;9.944;2023-05-18T07:52:52;102787.00;;;12.10
17142;BMP180;32805;53.556;9.944;2023-05-18T07:55:20;102784.00;;;12.30
17142;BMP180;32805;53.556;9.944;2023-05-18T07:57:48;102773.00;;;12.50
17142;BMP180;32805;53.556;9.944;2023-05-18T08:00:17;102787.00;;;12.60
17142;BMP180;32805;53.556;9.944;2023-05-18T08:02:45;102779.00;;;12.40
17142;BMP180;32805;53.556;9.944;2023-05-18T08:05:15;102797.00;;;12.40
17142;BMP180;32805;53.556;9.944;2023-05-18T08:07:43;102790.00;;;12.30
17142;BMP180;32805;53.556;9.944;2023-05-18T08:10:11;102784.00;;;12.20
17142;BMP180;32805;53.556;9.944;2023-05-18T08:12:39;102794.00;;;12.00
17142;BMP180;32805;53.556;9.944;2023-05-18T08:15:08;102765.00;;;11.80
17142;BMP180;32805;53.556;9.944;2023-05-18T08:17:35;102787.00;;;11.40
17142;BMP180;32805;53.556;9.944;2023-05-18T08:20:04;102796.00;;;11.10
17142;BMP180;32805;53.556;9.944;2023-05-18T08:22:35;102794.00;;;10.80
17142;BMP180;32805;53.556;9.944;2023-05-18T08:25:03;102796.00;;;10.70
17142;BMP180;32805;53.556;9.944;2023-05-18T08:27:30;102789.00;;;10.60
17142;BMP180;32805;53.556;9.944;2023-05-18T08:29:58;102794.00;;;10.40
17142;BMP180;32805;53.556;9.944;2023-05-18T08:32:27;102799.00;;;10.30
17142;BMP180;32805;53.556;9.944;2023-05-18T08:34:54;102797.00;;;10.20
17142;BMP180;32805;53.556;9.944;2023-05-18T08:37:22;102794.00;;;10.10
17142;BMP180;32805;53.556;9.944;2023-05-18T08:39:56;102801.00;;;10.30
17142;BMP180;32805;53.556;9.944;2023-05-18T08:42:28;102797.00;;;10.50
17142;BMP180;32805;53.556;9.944;2023-05-18T08:45:20;102791.00;;;10.80
17142;BMP180;32805;53.556;9.944;2023-05-18T08:47:49;102780.00;;;10.90
17142;BMP180;32805;53.556;9.944;2023-05-18T08:50:19;102779.00;;;11.00
17142;BMP180;32805;53.556;9.944;2023-05-18T08:52:54;102786.00;;;11.10
17142;BMP180;32805;53.556;9.944;2023-05-18T08:55:24;102775.00;;;11.10
17142;BMP180;32805;53.556;9.944;2023-05-18T08:57:54;102784.00;;;11.20
17142;BMP180;32805;53.556;9.944;2023-05-18T09:00:27;102773.00;;;11.20
17142;BMP180;32805;53.556;9.944;2023-05-18T09:02:55;102781.00;;;11.20
17142;BMP180;32805;53.556;9.944;2023-05-18T09:05:23;102780.00;;;11.20
17142;BMP180;32805;53.556;9.944;2023-05-18T09:07:53;102778.00;;;11.00
17142;BMP180;32805;53.556;9.944;2023-05-18T09:10:23;102779.00;;;11.00
17142;BMP180;32805;53.556;9.944;2023-05-18T09:12:51;102766.00;;;11.10
17142;BMP180;32805;53.556;9.944;2023-05-18T09:15:19;102774.00;;;11.20
17142;BMP180;32805;53.556;9.944;2023-05-18T09:17:47;102773.00;;;11.30
17142;BMP180;32805;53.556;9.944;2023-05-18T09:20:15;102775.00;;;11.20
17142;BMP180;32805;53.556;9.944;2023-05-18T09:22:43;102771.00;;;11.20
17142;BMP180;32805;53.556;9.944;2023-05-18T09:25:11;102774.00;;;11.20
17142;BMP180;32805;53.556;9.944;2023-05-18T09:27:41;102770.00;;;11.30
17142;BMP180;32805;53.556;9.944;2023-05-18T09:30:10;102763.00;;;11.40
17142;BMP180;32805;53.556;9.944;2023-05-18T09:32:38;102764.00;;;11.40
17142;BMP180;32805;53.556;9.944;2023-05-18T09:35:07;102747.00;;;11.30
17142;BMP180;32805;53.556;9.944;2023-05-18T09:37:35;102760.00;;;11.30
17142;BMP180;32805;53.556;9.944;2023-05-18T09:40:05;102759.00;;;11.40
17142;BMP180;32805;53.556;9.944;2023-05-18T09:42:34;102754.00;;;11.60
17142;BMP180;32805;53.556;9.944;2023-05-18T09:45:14;102748.00;;;11.70
17142;BMP180;32805;53.556;9.944;2023-05-18T09:47:42;102757.00;;;11.60
17142;BMP180;32805;53.556;9.944;2023-05-18T09:50:10;102754.00;;;11.50
17142;BMP180;32805;53.556;9.944;2023-05-18T09:52:41;102757.00;;;11.50
17142;BMP180;32805;53.556;9.944;2023-05-18T09:55:09;102741.00;;;11.50
17142;BMP180;32805;53.556;9.944;2023-05-18T09:57:39;102756.00;;;11.60
17142;BMP180;32805;53.556;9.944;2023-05-18T10:00:09;102751.00;;;11.60
17142;BMP180;32805;53.556;9.944;2023-05-18T10:02:39;102751.00;;;11.60
17142;BMP180;32805;53.556;9.944;2023-05-18T10:05:17;102738.00;;;11.60
17142;BMP180;32805;53.556;9.944;2023-05-18T10:07:45;102757.00;;;11.70
17142;BMP180;32805;53.556;9.944;2023-05-18T10:10:16;102746.00;;;11.80
17142;BMP180;32805;53.556;9.944;2023-05-18T10:12:44;102750.00;;;11.90
17142;BMP180;32805;53.556;9.944;2023-05-18T10:15:15;102745.00;;;12.00
17142;BMP180;32805;53.556;9.944;2023-05-18T10:17:43;102745.00;;;12.00
17142;BMP180;32805;53.556;9.944;2023-05-18T10:20:15;102727.00;;;12.10
17142;BMP180;32805;53.556;9.944;2023-05-18T10:22:45;102730.00;;;12.10
17142;BMP180;32805;53.556;9.944;2023-05-18T10:25:17;102738.00;;;12.20
17142;BMP180;32805;53.556;9.944;2023-05-18T10:27:46;102737.00;;;12.20
17142;BMP180;32805;53.556;9.944;2023-05-18T10:30:16;102733.00;;;12.30
17142;BMP180;32805;53.556;9.944;2023-05-18T10:32:44;102729.00;;;12.40
17142;BMP180;32805;53.556;9.944;2023-05-18T10:35:12;102736.00;;;12.50
17142;BMP180;32805;53.556;9.944;2023-05-18T10:37:45;102741.00;;;12.60
17142;BMP180;32805;53.556;9.944;2023-05-18T10:40:14;102735.00;;;12.70
17142;BMP180;32805;53.556;9.944;2023-05-18T10:42:44;102722.00;;;12.80
17142;BMP180;32805;53.556;9.944;2023-05-18T10:45:14;102731.00;;;12.90
17142;BMP180;32805;53.556;9.944;2023-05-18T10:47:43;102722.00;;;13.00
17142;BMP180;32805;53.556;9.944;2023-05-18T10:50:11;102723.00;;;13.10
17142;BMP180;32805;53.556;9.944;2023-05-18T10:52:43;102727.00;;;13.20
17142;BMP180;32805;53.556;9.944;2023-05-18T10:55:11;102719.00;;;13.30
17142;BMP180;32805;53.556;9.944;2023-05-18T10:57:42;102729.00;;;13.40
17142;BMP180;32805;53.556;9.944;2023-05-18T11:00:12;102717.00;;;13.30
17142;BMP180;32805;53.556;9.944;2023-05-18T11:02:40;102708.00;;;13.30
17142;BMP180;32805;53.556;9.944;2023-05-18T11:05:10;102725.00;;;13.30
17142;BMP180;32805;53.556;9.944;2023-05-18T11:07:39;102731.00;;;13.30
17142;BMP180;32805;53.556;9.944;2023-05-18T11:10:08;102730.00;;;13.30
17142;BMP180;32805;53.556;9.944;2023-05-18T11:12:37;102725.00;;;13.20
17142;BMP180;32805;53.556;9.944;2023-05-18T11:15:07;102719.00;;;13.20
17142;BMP180;32805;53.556;9.944;2023-05-18T11:17:35;102720.00;;;13.20
17142;BMP180;32805;53.556;9.944;2023-05-18T11:20:15;102720.00;;;13.20
17142;BMP180;32805;53.556;9.944;2023-05-18T11:22:45;102719.00;;;13.40
17142;BMP180;32805;53.556;9.944;2023-05-18T11:25:39;102712.00;;;13.60
17142;BMP180;32805;53.556;9.944;2023-05-18T11:28:09;102711.00;;;13.60
17142;BMP180;32805;53.556;9.944;2023-05-18T11:30:49;102709.00;;;13.50
17142;BMP180;32805;53.556;9.944;2023-05-18T11:33:21;102707.00;;;13.60
17142;BMP180;32805;53.556;9.944;2023-05-18T11:36:00;102712.00;;;13.70
17142;BMP180;32805;53.556;9.944;2023-05-18T11:38:49;102711.00;;;13.70
17142;BMP180;32805;53.556;9.944;2023-05-18T11:41:26;102695.00;;;13.70
17142;BMP180;32805;53.556;9.944;2023-05-18T11:44:02;102704.00;;;13.80
17142;BMP180;32805;53.556;9.944;2023-05-18T11:46:32;102712.00;;;13.90
17142;BMP180;32805;53.556;9.944;2023-05-18T11:49:02;102700.00;;;13.90
17142;BMP180;32805;53.556;9.944;2023-05-18T11:51:32;102699.00;;;13.80
17142;BMP180;32805;53.556;9.944;2023-05-18T11:53:59;102693.00;;;13.90
17142;BMP180;32805;53.556;9.944;2023-05-18T11:56:30;102692.00;;;14.10
17142;BMP180;32805;53.556;9.944;2023-05-18T11:59:11;102696.00;;;14.20
17142;BMP180;32805;53.556;9.944;2023-05-18T12:01:40;102696.00;;;14.30
17142;BMP180;32805;53.556;9.944;2023-05-18T12:04:09;102695.00;;;14.30
17142;BMP180;32805;53.556;9.944;2023-05-18T12:06:39;102699.00;;;14.10
17142;BMP180;32805;53.556;9.944;2023-05-18T12:09:06;102701.00;;;14.20
17142;BMP180;32805;53.556;9.944;2023-05-18T12:11:35;102697.00;;;14.20
17142;BMP180;32805;53.556;9.944;2023-05-18T12:14:04;102698.00;;;14.30
17142;BMP180;32805;53.556;9.944;2023-05-18T12:16:32;102680.00;;;14.30
17142;BMP180;32805;53.556;9.944;2023-05-18T12:19:02;102687.00;;;14.30
17142;BMP180;32805;53.556;9.944;2023-05-18T12:21:30;102686.00;;;14.40
17142;BMP180;32805;53.556;9.944;2023-05-18T12:24:03;102673.00;;;14.50
17142;BMP180;32805;53.556;9.944;2023-05-18T12:26:31;102672.00;;;14.60
17142;BMP180;32805;53.556;9.944;2023-05-18T12:28:59;102667.00;;;14.60
17142;BMP180;32805;53.556;9.944;2023-05-18T12:31:27;102676.00;;;14.70
17142;BMP180;32805;53.556;9.944;2023-05-18T12:33:55;102682.00;;;14.80
17142;BMP180;32805;53.556;9.944;2023-05-18T12:36:24;102675.00;;;14.80
17142;BMP180;32805;53.556;9.944;2023-05-18T12:38:52;102679.00;;;14.80
17142;BMP180;32805;53.556;9.944;2023-05-18T12:41:22;102671.00;;;14.80
17142;BMP180;32805;53.556;9.944;2023-05-18T12:43:50;102658.00;;;14.80
17142;BMP180;32805;53.556;9.944;2023-05-18T12:46:20;102668.00;;;15.00
17142;BMP180;32805;53.556;9.944;2023-05-18T12:48:55;102664.00;;;15.20
17142;BMP180;32805;53.556;9.944;2023-05-18T12:51:23;102672.00;;;15.20
17142;BMP180;32805;53.556;9.944;2023-05-18T12:53:56;102668.00;;;15.30
17142;BMP180;32805;53.556;9.944;2023-05-18T12:56:25;102659.00;;;15.30
17142;BMP180;32805;53.556;9.944;2023-05-18T12:58:55;102648.00;;;15.30
17142;BMP180;32805;53.556;9.944;2023-05-18T13:01:24;102643.00;;;15.20
17142;BMP180;32805;53.556;9.944;2023-05-18T13:03:55;102653.00;;;15.30
17142;BMP180;32805;53.556;9.944;2023-05-18T13:06:24;102656.00;;;15.20
17142;BMP180;32805;53.556;9.944;2023-05-18T13:08:53;102641.00;;;15.50
17142;BMP180;32805;53.556;9.944;2023-05-18T13:11:26;102641.00;;;15.50
17142;BMP180;32805;53.556;9.944;2023-05-18T13:13:58;102646.00;;;15.50
17142;BMP180;32805;53.556;9.944;2023-05-18T13:16:26;102631.00;;;15.70
17142;BMP180;32805;53.556;9.944;2023-05-18T13:18:57;102639.00;;;15.80
17142;BMP180;32805;53.556;9.944;2023-05-18T13:21:25;102633.00;;;15.90
17142;BMP180;32805;53.556;9.944;2023-05-18T13:23:52;102630.00;;;15.70
17142;BMP180;32805;53.556;9.944;2023-05-18T13:26:21;102634.00;;;15.70
17142;BMP180;32805;53.556;9.944;2023-05-18T13:28:52;102633.00;;;15.90
17142;BMP180;32805;53.556;9.944;2023-05-18T13:31:20;102618.00;;;16.00
17142;BMP180;32805;53.556;9.944;2023-05-18T13:33:49;102627.00;;;16.10
17142;BMP180;32805;53.556;9.944;2023-05-18T13:36:17;102621.00;;;16.00
17142;BMP180;32805;53.556;9.944;2023-05-18T13:38:45;102607.00;;;16.00
17142;BMP180;32805;53.556;9.944;2023-05-18T13:41:12;102626.00;;;16.20
17142;BMP180;32805;53.556;9.944;2023-05-18T13:43:40;102623.00;;;16.30
17142;BMP180;32805;53.556;9.944;2023-05-18T13:46:10;102617.00;;;16.40
17142;BMP180;32805;53.556;9.944;2023-05-18T13:48:37;102619.00;;;16.50
17142;BMP180;32805;53.556;9.944;2023-05-18T13:51:05;102625.00;;;16.60
17142;BMP180;32805;53.556;9.944;2023-05-18T13:53:33;102615.00;;;16.90
17142;BMP180;32805;53.556;9.944;2023-05-18T13:56:04;102605.00;;;16.90
17142;BMP180;32805;53.556;9.944;2023-05-18T13:58:31;102603.00;;;16.90
17142;BMP180;32805;53.556;9.944;2023-05-18T14:00:59;102607.00;;;16.80
17142;BMP180;32805;53.556;9.944;2023-05-18T14:03:30;102604.00;;;16.80
17142;BMP180;32805;53.556;9.944;2023-05-18T14:05:59;102600.00;;;16.90
17142;BMP180;32805;53.556;9.944;2023-05-18T14:08:27;102599.00;;;16.90
17142;BMP180;32805;53.556;9.944;2023-05-18T14:10:54;102591.00;;;17.10
17142;BMP180;32805;53.556;9.944;2023-05-18T14:13:22;102603.00;;;17.30
17142;BMP180;32805;53.556;9.944;2023-05-18T14:15:50;102593.00;;;17.40